Terminal Aerodrome Forecast
Issued by NWS

Home | Current Version | Previous Version | Text Only | Print | Product List | Glossary On
Versions: 1 2 3 4 5 6 7 8 9 10 11 12 13 14 15
769
FTUS43 KDVN 241725
TAFBRL
TAF
KBRL 241725Z 2418/2518 21018G25KT P6SM SKC
     FM242300 24012G17KT P6SM FEW110
     FM250200 28010KT P6SM BKN110
     FM250700 32010KT P6SM SCT150=

USA.gov is the U.S. government's official web portal to all federal, state and local government web resources and services.